American Canyon, CA (94503)

5:41 AM PST on December 06, 2016 (GMT -0800)
Victoria Fair | | Change Station

Elev 46 ft 38.17 °N, 122.26 °W | Updated 10 seconds ago

Clear
Clear
35.2 °F
Feels Like 35 °F
N
0.0
Wind Variable Wind from WSW
Gusts 0.0 mph

Today
High -- | Low -- °F
--% Chance of Precip.
Yesterday
High -- | Low -- °F
Precip. -- in
Pressure 30.06 in
Visibility 1.0 miles
Clouds Clear
Windchill 35 °F
Dew Point 35 °F
Humidity 98%
Rainfall 0.00 in
Snow Depth Not available.
7:11 AM 4:48 PM
Waxing Crescent, 42% visible
SPECI KAPC 061323Z AUTO 00000KT 1SM BR CLR M01/M02 A3006 RMK AO2 T10061022
Pressure 30.06 in
Visibility 1.0 miles
Clouds Clear
Windchill 35 °F
Dew Point 35 °F
Humidity 98%
Rainfall 0.00 in
Snow Depth Not available.
7:11 AM 4:48 PM
Waxing Crescent, 42% visible
SPECI KAPC 061323Z AUTO 00000KT 1SM BR CLR M01/M02 A3006 RMK AO2 T10061022

10-Day Weather Forecast

Almanac

Astronomy

Dec. 06, 2016 Rise Set
Actual Time
Civil Twilight
Nautical Twilight
Astronomical Twilight
Moon
Length of Visible Light
Length of Day
Tomorrow will be .
, % of the Moon is Illuminated

Today's Extremes

State Highs State Lows

Community

WunderPhotos

Upload Photos

1,955,944 photos uploaded!

WunderBlog® & News

Nearby

Air Quality

  Air Quality AQ Index Pollutant
Not available.

Snow Depth

Station Depth Elevation

Earthquake Activity

City Distance Mag. Time & Date
Minimum magnitude displayed is 2.5.

Coastal Water Temperatures

Place Temperature

Stations

Nearby Weather Stations

Station Location Temp. Windchill Dew Point Humidity Wind Precip. Elev Updated Type
                   

Watches & Warnings

There are currently no watches in effect.